sensor_id;sensor_type;location;lat;lon;timestamp;P1;durP1;ratioP1;P2;durP2;ratioP2
16468;SDS011;8345;50.902;6.956;2024-03-07T00:00:56;30.87;;;25.03;;
16468;SDS011;8345;50.902;6.956;2024-03-07T00:03:25;30.77;;;24.70;;
16468;SDS011;8345;50.902;6.956;2024-03-07T00:05:53;28.17;;;23.53;;
16468;SDS011;8345;50.902;6.956;2024-03-07T00:08:21;30.93;;;24.93;;
16468;SDS011;8345;50.902;6.956;2024-03-07T00:10:48;27.77;;;23.57;;
16468;SDS011;8345;50.902;6.956;2024-03-07T00:13:15;29.90;;;24.30;;
16468;SDS011;8345;50.902;6.956;2024-03-07T00:15:42;30.00;;;24.43;;
16468;SDS011;8345;50.902;6.956;2024-03-07T00:18:09;32.33;;;25.73;;
16468;SDS011;8345;50.902;6.956;2024-03-07T00:20:36;29.40;;;24.20;;
16468;SDS011;8345;50.902;6.956;2024-03-07T00:23:05;28.60;;;23.97;;
16468;SDS011;8345;50.902;6.956;2024-03-07T00:25:34;30.00;;;22.90;;
16468;SDS011;8345;50.902;6.956;2024-03-07T00:28:01;29.13;;;23.43;;
16468;SDS011;8345;50.902;6.956;2024-03-07T00:30:28;31.07;;;24.40;;
16468;SDS011;8345;50.902;6.956;2024-03-07T00:32:56;30.53;;;25.13;;
16468;SDS011;8345;50.902;6.956;2024-03-07T00:35:23;30.53;;;24.17;;
16468;SDS011;8345;50.902;6.956;2024-03-07T00:37:50;27.43;;;24.00;;
16468;SDS011;8345;50.902;6.956;2024-03-07T00:40:18;29.93;;;23.73;;
16468;SDS011;8345;50.902;6.956;2024-03-07T00:42:46;34.93;;;26.13;;
16468;SDS011;8345;50.902;6.956;2024-03-07T00:45:14;31.10;;;25.10;;
16468;SDS011;8345;50.902;6.956;2024-03-07T00:47:41;31.30;;;25.37;;
16468;SDS011;8345;50.902;6.956;2024-03-07T00:50:08;32.27;;;25.83;;
16468;SDS011;8345;50.902;6.956;2024-03-07T00:52:36;33.67;;;25.83;;
16468;SDS011;8345;50.902;6.956;2024-03-07T00:55:04;34.37;;;26.60;;
16468;SDS011;8345;50.902;6.956;2024-03-07T00:57:34;35.20;;;26.53;;
16468;SDS011;8345;50.902;6.956;2024-03-07T01:00:02;32.97;;;25.60;;
16468;SDS011;8345;50.902;6.956;2024-03-07T01:02:30;31.73;;;24.90;;
16468;SDS011;8345;50.902;6.956;2024-03-07T01:04:57;31.37;;;24.30;;
16468;SDS011;8345;50.902;6.956;2024-03-07T01:07:24;31.97;;;25.00;;
16468;SDS011;8345;50.902;6.956;2024-03-07T01:09:53;32.50;;;24.77;;
16468;SDS011;8345;50.902;6.956;2024-03-07T01:12:20;32.57;;;26.10;;
16468;SDS011;8345;50.902;6.956;2024-03-07T01:14:50;32.17;;;25.43;;
16468;SDS011;8345;50.902;6.956;2024-03-07T01:17:17;30.30;;;24.83;;
16468;SDS011;8345;50.902;6.956;2024-03-07T01:19:44;32.93;;;25.70;;
16468;SDS011;8345;50.902;6.956;2024-03-07T01:22:12;33.23;;;25.70;;
16468;SDS011;8345;50.902;6.956;2024-03-07T01:24:39;30.87;;;23.30;;
16468;SDS011;8345;50.902;6.956;2024-03-07T01:27:06;33.30;;;26.13;;
16468;SDS011;8345;50.902;6.956;2024-03-07T01:29:33;32.93;;;24.40;;
16468;SDS011;8345;50.902;6.956;2024-03-07T01:32:02;32.93;;;24.77;;
16468;SDS011;8345;50.902;6.956;2024-03-07T01:34:29;34.37;;;25.17;;
16468;SDS011;8345;50.902;6.956;2024-03-07T01:36:56;34.00;;;26.37;;
16468;SDS011;8345;50.902;6.956;2024-03-07T01:39:23;35.03;;;25.07;;
16468;SDS011;8345;50.902;6.956;2024-03-07T01:41:51;35.10;;;24.97;;
16468;SDS011;8345;50.902;6.956;2024-03-07T01:44:18;34.27;;;25.67;;
16468;SDS011;8345;50.902;6.956;2024-03-07T01:46:45;31.83;;;24.47;;
16468;SDS011;8345;50.902;6.956;2024-03-07T01:49:16;32.13;;;24.13;;
16468;SDS011;8345;50.902;6.956;2024-03-07T01:51:43;34.00;;;24.13;;
16468;SDS011;8345;50.902;6.956;2024-03-07T01:54:11;32.40;;;23.90;;
16468;SDS011;8345;50.902;6.956;2024-03-07T01:56:38;31.17;;;23.27;;
16468;SDS011;8345;50.902;6.956;2024-03-07T01:59:05;31.90;;;23.67;;
16468;SDS011;8345;50.902;6.956;2024-03-07T02:01:33;34.40;;;24.27;;
16468;SDS011;8345;50.902;6.956;2024-03-07T02:04:01;31.13;;;22.90;;
16468;SDS011;8345;50.902;6.956;2024-03-07T02:06:31;32.33;;;24.63;;
16468;SDS011;8345;50.902;6.956;2024-03-07T02:08:58;30.87;;;22.43;;
16468;SDS011;8345;50.902;6.956;2024-03-07T02:11:27;31.03;;;23.40;;
16468;SDS011;8345;50.902;6.956;2024-03-07T02:13:55;29.40;;;22.63;;
16468;SDS011;8345;50.902;6.956;2024-03-07T02:16:22;29.63;;;23.30;;
16468;SDS011;8345;50.902;6.956;2024-03-07T02:18:49;28.23;;;22.47;;
16468;SDS011;8345;50.902;6.956;2024-03-07T02:21:18;30.37;;;24.13;;
16468;SDS011;8345;50.902;6.956;2024-03-07T02:23:45;29.77;;;22.33;;
16468;SDS011;8345;50.902;6.956;2024-03-07T02:26:12;28.10;;;21.67;;
16468;SDS011;8345;50.902;6.956;2024-03-07T02:28:41;29.73;;;22.13;;
16468;SDS011;8345;50.902;6.956;2024-03-07T02:31:08;29.10;;;22.47;;
16468;SDS011;8345;50.902;6.956;2024-03-07T02:33:35;28.77;;;23.03;;
16468;SDS011;8345;50.902;6.956;2024-03-07T02:36:03;30.97;;;22.97;;
16468;SDS011;8345;50.902;6.956;2024-03-07T02:38:31;27.80;;;21.37;;
16468;SDS011;8345;50.902;6.956;2024-03-07T02:40:59;26.80;;;21.70;;
16468;SDS011;8345;50.902;6.956;2024-03-07T02:43:26;26.73;;;21.43;;
16468;SDS011;8345;50.902;6.956;2024-03-07T02:45:53;28.00;;;21.77;;
16468;SDS011;8345;50.902;6.956;2024-03-07T02:48:21;27.77;;;21.90;;
16468;SDS011;8345;50.902;6.956;2024-03-07T02:50:48;27.13;;;21.70;;
16468;SDS011;8345;50.902;6.956;2024-03-07T02:53:16;26.97;;;22.30;;
16468;SDS011;8345;50.902;6.956;2024-03-07T02:55:45;26.30;;;21.20;;
16468;SDS011;8345;50.902;6.956;2024-03-07T02:58:12;26.83;;;22.17;;
16468;SDS011;8345;50.902;6.956;2024-03-07T03:00:41;27.03;;;21.70;;
16468;SDS011;8345;50.902;6.956;2024-03-07T03:03:08;27.03;;;21.23;;
16468;SDS011;8345;50.902;6.956;2024-03-07T03:05:35;26.83;;;21.27;;
16468;SDS011;8345;50.902;6.956;2024-03-07T03:08:04;28.50;;;21.33;;
16468;SDS011;8345;50.902;6.956;2024-03-07T03:10:32;25.73;;;19.77;;
16468;SDS011;8345;50.902;6.956;2024-03-07T03:13:00;25.07;;;20.20;;
16468;SDS011;8345;50.902;6.956;2024-03-07T03:15:27;25.13;;;20.23;;
16468;SDS011;8345;50.902;6.956;2024-03-07T03:17:55;25.47;;;20.57;;
16468;SDS011;8345;50.902;6.956;2024-03-07T03:20:24;26.50;;;21.07;;
16468;SDS011;8345;50.902;6.956;2024-03-07T03:22:58;27.47;;;20.50;;
16468;SDS011;8345;50.902;6.956;2024-03-07T03:25:27;28.00;;;21.37;;
16468;SDS011;8345;50.902;6.956;2024-03-07T03:27:55;27.67;;;21.50;;
16468;SDS011;8345;50.902;6.956;2024-03-07T03:30:24;26.43;;;20.63;;
16468;SDS011;8345;50.902;6.956;2024-03-07T03:32:51;29.30;;;21.27;;
16468;SDS011;8345;50.902;6.956;2024-03-07T03:35:18;26.60;;;20.57;;
16468;SDS011;8345;50.902;6.956;2024-03-07T03:37:46;28.20;;;19.90;;
16468;SDS011;8345;50.902;6.956;2024-03-07T03:40:13;27.23;;;20.03;;
16468;SDS011;8345;50.902;6.956;2024-03-07T03:42:40;24.30;;;19.20;;
16468;SDS011;8345;50.902;6.956;2024-03-07T03:45:08;27.57;;;20.30;;
16468;SDS011;8345;50.902;6.956;2024-03-07T03:47:42;31.50;;;21.23;;
16468;SDS011;8345;50.902;6.956;2024-03-07T03:50:10;25.70;;;20.20;;
16468;SDS011;8345;50.902;6.956;2024-03-07T03:52:37;28.20;;;21.27;;
16468;SDS011;8345;50.902;6.956;2024-03-07T03:55:06;26.60;;;19.23;;
16468;SDS011;8345;50.902;6.956;2024-03-07T03:57:34;26.07;;;20.03;;
16468;SDS011;8345;50.902;6.956;2024-03-07T04:00:03;26.73;;;20.83;;
16468;SDS011;8345;50.902;6.956;2024-03-07T04:02:37;27.53;;;21.30;;
16468;SDS011;8345;50.902;6.956;2024-03-07T04:05:06;26.00;;;21.43;;
16468;SDS011;8345;50.902;6.956;2024-03-07T04:07:34;28.33;;;20.97;;
16468;SDS011;8345;50.902;6.956;2024-03-07T04:10:01;25.17;;;20.47;;
16468;SDS011;8345;50.902;6.956;2024-03-07T04:12:29;28.40;;;20.50;;
16468;SDS011;8345;50.902;6.956;2024-03-07T04:14:57;24.30;;;19.03;;
16468;SDS011;8345;50.902;6.956;2024-03-07T04:17:24;27.00;;;19.90;;
16468;SDS011;8345;50.902;6.956;2024-03-07T04:19:51;24.97;;;20.43;;
16468;SDS011;8345;50.902;6.956;2024-03-07T04:22:19;26.70;;;19.80;;
16468;SDS011;8345;50.902;6.956;2024-03-07T04:24:48;27.93;;;19.73;;
16468;SDS011;8345;50.902;6.956;2024-03-07T04:27:19;26.10;;;19.83;;
16468;SDS011;8345;50.902;6.956;2024-03-07T04:29:46;29.60;;;19.83;;
16468;SDS011;8345;50.902;6.956;2024-03-07T04:32:14;27.13;;;20.17;;
16468;SDS011;8345;50.902;6.956;2024-03-07T04:34:42;25.90;;;19.60;;
16468;SDS011;8345;50.902;6.956;2024-03-07T04:37:09;24.73;;;19.90;;
16468;SDS011;8345;50.902;6.956;2024-03-07T04:39:38;24.27;;;18.83;;
16468;SDS011;8345;50.902;6.956;2024-03-07T04:42:05;25.17;;;19.47;;
16468;SDS011;8345;50.902;6.956;2024-03-07T04:44:34;25.63;;;19.30;;
16468;SDS011;8345;50.902;6.956;2024-03-07T04:47:02;24.97;;;19.57;;
16468;SDS011;8345;50.902;6.956;2024-03-07T04:49:30;26.90;;;19.87;;
16468;SDS011;8345;50.902;6.956;2024-03-07T04:51:57;28.70;;;20.60;;
16468;SDS011;8345;50.902;6.956;2024-03-07T04:54:25;26.90;;;21.10;;
16468;SDS011;8345;50.902;6.956;2024-03-07T04:56:54;28.83;;;20.33;;
16468;SDS011;8345;50.902;6.956;2024-03-07T04:59:21;27.70;;;19.90;;
16468;SDS011;8345;50.902;6.956;2024-03-07T05:01:49;28.10;;;20.23;;
16468;SDS011;8345;50.902;6.956;2024-03-07T05:04:17;27.23;;;21.17;;
16468;SDS011;8345;50.902;6.956;2024-03-07T05:06:44;25.07;;;19.27;;
16468;SDS011;8345;50.902;6.956;2024-03-07T05:09:13;25.07;;;19.17;;
16468;SDS011;8345;50.902;6.956;2024-03-07T05:11:48;26.50;;;19.33;;
16468;SDS011;8345;50.902;6.956;2024-03-07T05:14:18;25.33;;;19.17;;
16468;SDS011;8345;50.902;6.956;2024-03-07T05:16:45;27.77;;;19.60;;
16468;SDS011;8345;50.902;6.956;2024-03-07T05:19:27;24.07;;;18.20;;
16468;SDS011;8345;50.902;6.956;2024-03-07T05:21:55;25.53;;;19.17;;
16468;SDS011;8345;50.902;6.956;2024-03-07T05:24:23;24.97;;;19.77;;
16468;SDS011;8345;50.902;6.956;2024-03-07T05:26:50;23.83;;;18.00;;
16468;SDS011;8345;50.902;6.956;2024-03-07T05:29:19;26.27;;;19.80;;
16468;SDS011;8345;50.902;6.956;2024-03-07T05:31:46;25.43;;;20.27;;
16468;SDS011;8345;50.902;6.956;2024-03-07T05:34:14;28.33;;;19.83;;
16468;SDS011;8345;50.902;6.956;2024-03-07T05:36:44;29.07;;;19.67;;
16468;SDS011;8345;50.902;6.956;2024-03-07T05:39:12;26.33;;;20.67;;
16468;SDS011;8345;50.902;6.956;2024-03-07T05:41:39;27.20;;;19.10;;
16468;SDS011;8345;50.902;6.956;2024-03-07T05:44:07;28.77;;;19.67;;
16468;SDS011;8345;50.902;6.956;2024-03-07T05:46:36;26.37;;;20.80;;
16468;SDS011;8345;50.902;6.956;2024-03-07T05:49:06;28.53;;;20.33;;
16468;SDS011;8345;50.902;6.956;2024-03-07T05:51:33;24.77;;;19.20;;
16468;SDS011;8345;50.902;6.956;2024-03-07T05:54:01;27.27;;;19.77;;
16468;SDS011;8345;50.902;6.956;2024-03-07T05:56:31;26.80;;;21.60;;
16468;SDS011;8345;50.902;6.956;2024-03-07T05:59:00;27.63;;;20.20;;
16468;SDS011;8345;50.902;6.956;2024-03-07T06:01:30;28.23;;;21.33;;
16468;SDS011;8345;50.902;6.956;2024-03-07T06:04:00;26.93;;;21.00;;
16468;SDS011;8345;50.902;6.956;2024-03-07T06:06:30;27.60;;;21.43;;
16468;SDS011;8345;50.902;6.956;2024-03-07T06:08:58;26.57;;;19.47;;
16468;SDS011;8345;50.902;6.956;2024-03-07T06:11:25;27.23;;;20.53;;
16468;SDS011;8345;50.902;6.956;2024-03-07T06:13:52;28.80;;;21.47;;
16468;SDS011;8345;50.902;6.956;2024-03-07T06:16:20;29.33;;;22.70;;
16468;SDS011;8345;50.902;6.956;2024-03-07T06:18:47;32.77;;;25.67;;
16468;SDS011;8345;50.902;6.956;2024-03-07T06:21:16;30.20;;;24.33;;
16468;SDS011;8345;50.902;6.956;2024-03-07T06:23:43;30.20;;;23.77;;
16468;SDS011;8345;50.902;6.956;2024-03-07T06:26:13;33.10;;;23.83;;
16468;SDS011;8345;50.902;6.956;2024-03-07T06:28:51;31.37;;;22.00;;
16468;SDS011;8345;50.902;6.956;2024-03-07T06:31:19;27.77;;;21.97;;
16468;SDS011;8345;50.902;6.956;2024-03-07T06:33:46;31.13;;;22.53;;
16468;SDS011;8345;50.902;6.956;2024-03-07T06:36:13;30.50;;;22.53;;
16468;SDS011;8345;50.902;6.956;2024-03-07T06:38:43;30.60;;;22.97;;
16468;SDS011;8345;50.902;6.956;2024-03-07T06:41:10;28.80;;;22.27;;
16468;SDS011;8345;50.902;6.956;2024-03-07T06:43:37;28.27;;;21.77;;
16468;SDS011;8345;50.902;6.956;2024-03-07T06:46:04;28.47;;;21.70;;
16468;SDS011;8345;50.902;6.956;2024-03-07T06:48:34;30.27;;;21.73;;
16468;SDS011;8345;50.902;6.956;2024-03-07T06:51:01;27.80;;;20.70;;
16468;SDS011;8345;50.902;6.956;2024-03-07T06:53:28;28.10;;;23.30;;
16468;SDS011;8345;50.902;6.956;2024-03-07T06:55:57;26.73;;;20.73;;
16468;SDS011;8345;50.902;6.956;2024-03-07T06:58:24;29.83;;;22.07;;
16468;SDS011;8345;50.902;6.956;2024-03-07T07:00:51;28.83;;;23.43;;
16468;SDS011;8345;50.902;6.956;2024-03-07T07:03:19;28.13;;;21.27;;
16468;SDS011;8345;50.902;6.956;2024-03-07T07:05:47;28.53;;;22.43;;
16468;SDS011;8345;50.902;6.956;2024-03-07T07:08:15;27.80;;;21.10;;
16468;SDS011;8345;50.902;6.956;2024-03-07T07:10:42;26.60;;;20.87;;
16468;SDS011;8345;50.902;6.956;2024-03-07T07:13:11;28.00;;;22.00;;
16468;SDS011;8345;50.902;6.956;2024-03-07T07:15:38;25.17;;;20.43;;
16468;SDS011;8345;50.902;6.956;2024-03-07T07:18:06;27.40;;;22.00;;
16468;SDS011;8345;50.902;6.956;2024-03-07T07:20:33;26.57;;;20.87;;
16468;SDS011;8345;50.902;6.956;2024-03-07T07:23:00;29.47;;;23.13;;
16468;SDS011;8345;50.902;6.956;2024-03-07T07:25:28;28.20;;;22.10;;
16468;SDS011;8345;50.902;6.956;2024-03-07T07:27:56;29.50;;;23.03;;
16468;SDS011;8345;50.902;6.956;2024-03-07T07:30:24;27.37;;;21.83;;
16468;SDS011;8345;50.902;6.956;2024-03-07T07:32:52;25.63;;;21.27;;
16468;SDS011;8345;50.902;6.956;2024-03-07T07:35:19;27.03;;;22.30;;
16468;SDS011;8345;50.902;6.956;2024-03-07T07:37:47;27.80;;;21.47;;
16468;SDS011;8345;50.902;6.956;2024-03-07T07:40:16;25.67;;;22.20;;
16468;SDS011;8345;50.902;6.956;2024-03-07T07:42:44;25.87;;;21.53;;
16468;SDS011;8345;50.902;6.956;2024-03-07T07:45:12;25.83;;;21.87;;
16468;SDS011;8345;50.902;6.956;2024-03-07T07:47:41;26.63;;;21.67;;
16468;SDS011;8345;50.902;6.956;2024-03-07T07:50:09;24.27;;;20.47;;
16468;SDS011;8345;50.902;6.956;2024-03-07T07:52:39;26.23;;;21.77;;
16468;SDS011;8345;50.902;6.956;2024-03-07T07:55:07;29.80;;;21.60;;
16468;SDS011;8345;50.902;6.956;2024-03-07T07:57:40;27.83;;;21.53;;
16468;SDS011;8345;50.902;6.956;2024-03-07T08:00:07;24.93;;;20.53;;
16468;SDS011;8345;50.902;6.956;2024-03-07T08:02:34;26.07;;;20.77;;
16468;SDS011;8345;50.902;6.956;2024-03-07T08:05:03;25.00;;;20.77;;
16468;SDS011;8345;50.902;6.956;2024-03-07T08:07:31;24.23;;;20.20;;
16468;SDS011;8345;50.902;6.956;2024-03-07T08:09:58;23.60;;;20.23;;
16468;SDS011;8345;50.902;6.956;2024-03-07T08:12:25;26.07;;;19.97;;
16468;SDS011;8345;50.902;6.956;2024-03-07T08:14:53;22.67;;;20.17;;
16468;SDS011;8345;50.902;6.956;2024-03-07T08:17:21;24.67;;;21.37;;
16468;SDS011;8345;50.902;6.956;2024-03-07T08:19:48;22.63;;;19.87;;
16468;SDS011;8345;50.902;6.956;2024-03-07T08:22:17;22.70;;;19.80;;
16468;SDS011;8345;50.902;6.956;2024-03-07T08:24:45;22.70;;;18.93;;
16468;SDS011;8345;50.902;6.956;2024-03-07T08:27:12;20.90;;;18.70;;
16468;SDS011;8345;50.902;6.956;2024-03-07T08:29:39;22.13;;;19.13;;
16468;SDS011;8345;50.902;6.956;2024-03-07T08:32:07;22.70;;;20.20;;
16468;SDS011;8345;50.902;6.956;2024-03-07T08:34:34;20.77;;;18.53;;
16468;SDS011;8345;50.902;6.956;2024-03-07T08:37:01;22.13;;;18.97;;
16468;SDS011;8345;50.902;6.956;2024-03-07T08:39:31;19.90;;;17.40;;
16468;SDS011;8345;50.902;6.956;2024-03-07T08:41:58;23.70;;;17.80;;
16468;SDS011;8345;50.902;6.956;2024-03-07T08:44:25;20.10;;;16.97;;
16468;SDS011;8345;50.902;6.956;2024-03-07T08:46:52;22.10;;;17.07;;
16468;SDS011;8345;50.902;6.956;2024-03-07T08:49:20;20.30;;;16.70;;
16468;SDS011;8345;50.902;6.956;2024-03-07T08:51:47;19.97;;;16.10;;
16468;SDS011;8345;50.902;6.956;2024-03-07T08:54:14;20.93;;;16.03;;
16468;SDS011;8345;50.902;6.956;2024-03-07T08:56:43;18.30;;;15.50;;
16468;SDS011;8345;50.902;6.956;2024-03-07T08:59:10;20.20;;;15.83;;
16468;SDS011;8345;50.902;6.956;2024-03-07T09:01:42;18.13;;;14.73;;
16468;SDS011;8345;50.902;6.956;2024-03-07T09:04:09;18.83;;;14.97;;
16468;SDS011;8345;50.902;6.956;2024-03-07T09:06:37;19.37;;;16.20;;
16468;SDS011;8345;50.902;6.956;2024-03-07T09:09:04;18.03;;;13.43;;
16468;SDS011;8345;50.902;6.956;2024-03-07T09:11:33;18.67;;;15.00;;
16468;SDS011;8345;50.902;6.956;2024-03-07T09:14:03;17.53;;;14.73;;
16468;SDS011;8345;50.902;6.956;2024-03-07T09:16:34;18.60;;;14.83;;
16468;SDS011;8345;50.902;6.956;2024-03-07T09:19:01;19.53;;;15.40;;
16468;SDS011;8345;50.902;6.956;2024-03-07T09:21:29;18.23;;;14.93;;
16468;SDS011;8345;50.902;6.956;2024-03-07T09:23:56;20.47;;;15.90;;
16468;SDS011;8345;50.902;6.956;2024-03-07T09:26:23;18.23;;;15.57;;
16468;SDS011;8345;50.902;6.956;2024-03-07T09:28:50;17.23;;;14.90;;
16468;SDS011;8345;50.902;6.956;2024-03-07T09:31:21;19.50;;;17.00;;
16468;SDS011;8345;50.902;6.956;2024-03-07T09:33:49;19.07;;;15.70;;
16468;SDS011;8345;50.902;6.956;2024-03-07T09:36:16;18.60;;;14.87;;
16468;SDS011;8345;50.902;6.956;2024-03-07T09:38:44;19.60;;;16.37;;
16468;SDS011;8345;50.902;6.956;2024-03-07T09:41:11;17.60;;;15.70;;
16468;SDS011;8345;50.902;6.956;2024-03-07T09:43:40;18.37;;;15.73;;
16468;SDS011;8345;50.902;6.956;2024-03-07T09:46:09;16.60;;;14.80;;
16468;SDS011;8345;50.902;6.956;2024-03-07T09:48:38;20.07;;;15.80;;
16468;SDS011;8345;50.902;6.956;2024-03-07T09:51:05;17.77;;;14.53;;
16468;SDS011;8345;50.902;6.956;2024-03-07T09:53:34;17.07;;;14.70;;
16468;SDS011;8345;50.902;6.956;2024-03-07T09:56:05;16.23;;;13.90;;
16468;SDS011;8345;50.902;6.956;2024-03-07T09:58:33;17.27;;;14.80;;
16468;SDS011;8345;50.902;6.956;2024-03-07T10:01:00;18.37;;;14.87;;
16468;SDS011;8345;50.902;6.956;2024-03-07T10:03:29;19.90;;;15.53;;
16468;SDS011;8345;50.902;6.956;2024-03-07T10:05:58;18.13;;;15.27;;
16468;SDS011;8345;50.902;6.956;2024-03-07T10:08:26;18.47;;;15.60;;
16468;SDS011;8345;50.902;6.956;2024-03-07T10:10:54;17.17;;;14.57;;
16468;SDS011;8345;50.902;6.956;2024-03-07T10:13:23;16.80;;;13.90;;
16468;SDS011;8345;50.902;6.956;2024-03-07T10:15:51;17.83;;;14.93;;
16468;SDS011;8345;50.902;6.956;2024-03-07T10:18:24;17.23;;;15.30;;
16468;SDS011;8345;50.902;6.956;2024-03-07T10:20:53;21.97;;;15.30;;
16468;SDS011;8345;50.902;6.956;2024-03-07T10:23:21;18.53;;;15.33;;
16468;SDS011;8345;50.902;6.956;2024-03-07T10:25:49;17.73;;;15.23;;
16468;SDS011;8345;50.902;6.956;2024-03-07T10:28:18;18.97;;;15.40;;
16468;SDS011;8345;50.902;6.956;2024-03-07T10:30:46;19.27;;;15.17;;
16468;SDS011;8345;50.902;6.956;2024-03-07T10:33:15;19.93;;;14.93;;
16468;SDS011;8345;50.902;6.956;2024-03-07T10:35:42;19.23;;;15.23;;
16468;SDS011;8345;50.902;6.956;2024-03-07T10:38:09;16.83;;;14.90;;
16468;SDS011;8345;50.902;6.956;2024-03-07T10:40:38;18.10;;;15.70;;
16468;SDS011;8345;50.902;6.956;2024-03-07T10:43:09;19.03;;;14.90;;
16468;SDS011;8345;50.902;6.956;2024-03-07T10:45:37;18.83;;;15.03;;
16468;SDS011;8345;50.902;6.956;2024-03-07T10:48:08;19.23;;;15.60;;
16468;SDS011;8345;50.902;6.956;2024-03-07T10:50:47;18.57;;;15.43;;
16468;SDS011;8345;50.902;6.956;2024-03-07T10:53:18;17.53;;;14.77;;
16468;SDS011;8345;50.902;6.956;2024-03-07T10:55:53;18.23;;;15.90;;
16468;SDS011;8345;50.902;6.956;2024-03-07T10:58:22;18.20;;;15.17;;
16468;SDS011;8345;50.902;6.956;2024-03-07T11:00:51;18.23;;;15.80;;
16468;SDS011;8345;50.902;6.956;2024-03-07T11:03:21;18.63;;;14.93;;
16468;SDS011;8345;50.902;6.956;2024-03-07T11:05:50;18.20;;;15.47;;
16468;SDS011;8345;50.902;6.956;2024-03-07T11:08:17;17.43;;;14.67;;
16468;SDS011;8345;50.902;6.956;2024-03-07T11:10:45;17.70;;;15.10;;
16468;SDS011;8345;50.902;6.956;2024-03-07T11:13:14;20.80;;;15.53;;
16468;SDS011;8345;50.902;6.956;2024-03-07T11:15:42;17.63;;;14.40;;
16468;SDS011;8345;50.902;6.956;2024-03-07T11:18:10;16.83;;;14.67;;
16468;SDS011;8345;50.902;6.956;2024-03-07T11:20:38;17.53;;;14.90;;
16468;SDS011;8345;50.902;6.956;2024-03-07T11:23:24;19.97;;;15.60;;
16468;SDS011;8345;50.902;6.956;2024-03-07T11:25:53;18.50;;;15.27;;
16468;SDS011;8345;50.902;6.956;2024-03-07T11:28:27;18.10;;;14.83;;
16468;SDS011;8345;50.902;6.956;2024-03-07T11:31:06;17.10;;;15.30;;
16468;SDS011;8345;50.902;6.956;2024-03-07T11:33:34;17.67;;;14.50;;
16468;SDS011;8345;50.902;6.956;2024-03-07T11:36:01;16.57;;;14.87;;
16468;SDS011;8345;50.902;6.956;2024-03-07T11:38:30;19.00;;;15.40;;
16468;SDS011;8345;50.902;6.956;2024-03-07T11:40:59;17.13;;;14.83;;
16468;SDS011;8345;50.902;6.956;2024-03-07T11:43:30;16.77;;;14.17;;
16468;SDS011;8345;50.902;6.956;2024-03-07T11:45:58;19.17;;;14.63;;
16468;SDS011;8345;50.902;6.956;2024-03-07T11:48:25;16.63;;;13.73;;
16468;SDS011;8345;50.902;6.956;2024-03-07T11:50:53;15.37;;;13.73;;
16468;SDS011;8345;50.902;6.956;2024-03-07T11:53:21;15.90;;;13.93;;
16468;SDS011;8345;50.902;6.956;2024-03-07T11:55:48;16.83;;;13.30;;
16468;SDS011;8345;50.902;6.956;2024-03-07T11:58:16;14.97;;;13.33;;
16468;SDS011;8345;50.902;6.956;2024-03-07T12:00:48;16.60;;;13.37;;
16468;SDS011;8345;50.902;6.956;2024-03-07T12:03:16;16.53;;;13.60;;
16468;SDS011;8345;50.902;6.956;2024-03-07T12:05:46;14.67;;;13.07;;
16468;SDS011;8345;50.902;6.956;2024-03-07T12:08:13;15.23;;;13.13;;
16468;SDS011;8345;50.902;6.956;2024-03-07T12:10:41;17.23;;;12.63;;
16468;SDS011;8345;50.902;6.956;2024-03-07T12:13:08;15.30;;;13.23;;
16468;SDS011;8345;50.902;6.956;2024-03-07T12:15:37;14.20;;;12.73;;
16468;SDS011;8345;50.902;6.956;2024-03-07T12:18:07;15.60;;;12.90;;
16468;SDS011;8345;50.902;6.956;2024-03-07T12:20:35;14.07;;;12.60;;
16468;SDS011;8345;50.902;6.956;2024-03-07T12:23:03;13.10;;;11.70;;
16468;SDS011;8345;50.902;6.956;2024-03-07T12:25:34;14.40;;;12.97;;
16468;SDS011;8345;50.902;6.956;2024-03-07T12:28:02;15.10;;;12.00;;
16468;SDS011;8345;50.902;6.956;2024-03-07T12:30:31;15.10;;;12.10;;
16468;SDS011;8345;50.902;6.956;2024-03-07T12:32:59;13.50;;;11.27;;
16468;SDS011;8345;50.902;6.956;2024-03-07T12:35:30;13.67;;;12.20;;
16468;SDS011;8345;50.902;6.956;2024-03-07T12:37:57;13.27;;;11.97;;
16468;SDS011;8345;50.902;6.956;2024-03-07T12:40:25;13.80;;;12.40;;
16468;SDS011;8345;50.902;6.956;2024-03-07T12:42:54;14.40;;;12.67;;
16468;SDS011;8345;50.902;6.956;2024-03-07T12:45:22;13.40;;;11.10;;
16468;SDS011;8345;50.902;6.956;2024-03-07T12:47:51;12.33;;;10.50;;
16468;SDS011;8345;50.902;6.956;2024-03-07T12:50:19;11.13;;;10.03;;
16468;SDS011;8345;50.902;6.956;2024-03-07T12:52:48;11.70;;;10.50;;
16468;SDS011;8345;50.902;6.956;2024-03-07T12:55:16;11.90;;;10.33;;
16468;SDS011;8345;50.902;6.956;2024-03-07T12:57:46;11.33;;;10.23;;
16468;SDS011;8345;50.902;6.956;2024-03-07T13:00:15;11.63;;;10.43;;
16468;SDS011;8345;50.902;6.956;2024-03-07T13:02:46;10.03;;;9.03;;
16468;SDS011;8345;50.902;6.956;2024-03-07T13:05:13;11.90;;;10.17;;
16468;SDS011;8345;50.902;6.956;2024-03-07T13:07:45;12.23;;;10.20;;
16468;SDS011;8345;50.902;6.956;2024-03-07T13:10:14;10.63;;;9.47;;
16468;SDS011;8345;50.902;6.956;2024-03-07T13:12:44;10.07;;;8.80;;
16468;SDS011;8345;50.902;6.956;2024-03-07T13:15:13;11.57;;;10.37;;
16468;SDS011;8345;50.902;6.956;2024-03-07T13:17:41;11.70;;;10.27;;
16468;SDS011;8345;50.902;6.956;2024-03-07T13:20:08;11.67;;;10.47;;
16468;SDS011;8345;50.902;6.956;2024-03-07T13:22:38;11.80;;;10.50;;
16468;SDS011;8345;50.902;6.956;2024-03-07T13:25:07;12.00;;;10.23;;
16468;SDS011;8345;50.902;6.956;2024-03-07T13:27:41;11.83;;;10.40;;
16468;SDS011;8345;50.902;6.956;2024-03-07T13:30:09;11.60;;;10.40;;
16468;SDS011;8345;50.902;6.956;2024-03-07T13:32:49;11.60;;;10.40;;
16468;SDS011;8345;50.902;6.956;2024-03-07T13:35:18;12.47;;;11.13;;
16468;SDS011;8345;50.902;6.956;2024-03-07T13:37:46;12.23;;;11.03;;
16468;SDS011;8345;50.902;6.956;2024-03-07T13:40:13;12.07;;;10.30;;
16468;SDS011;8345;50.902;6.956;2024-03-07T13:42:50;12.27;;;10.23;;
16468;SDS011;8345;50.902;6.956;2024-03-07T13:45:18;11.53;;;10.17;;
16468;SDS011;8345;50.902;6.956;2024-03-07T13:47:46;11.47;;;10.27;;
16468;SDS011;8345;50.902;6.956;2024-03-07T13:50:14;11.90;;;9.43;;
16468;SDS011;8345;50.902;6.956;2024-03-07T13:52:41;11.03;;;9.23;;
16468;SDS011;8345;50.902;6.956;2024-03-07T13:55:29;11.07;;;9.47;;
16468;SDS011;8345;50.902;6.956;2024-03-07T13:57:58;12.30;;;10.97;;
16468;SDS011;8345;50.902;6.956;2024-03-07T14:00:32;13.97;;;10.77;;
16468;SDS011;8345;50.902;6.956;2024-03-07T14:06:04;12.07;;;10.80;;
16468;SDS011;8345;50.902;6.956;2024-03-07T14:14:23;16.17;;;10.30;;
16468;SDS011;8345;50.902;6.956;2024-03-07T14:19:54;9.70;;;8.70;;
16468;SDS011;8345;50.902;6.956;2024-03-07T14:25:22;12.20;;;10.33;;
16468;SDS011;8345;50.902;6.956;2024-03-07T14:28:05;11.13;;;9.53;;
16468;SDS011;8345;50.902;6.956;2024-03-07T14:30:41;11.73;;;9.77;;
16468;SDS011;8345;50.902;6.956;2024-03-07T14:33:08;11.20;;;10.03;;
16468;SDS011;8345;50.902;6.956;2024-03-07T14:35:39;12.80;;;10.80;;
16468;SDS011;8345;50.902;6.956;2024-03-07T14:38:25;11.37;;;10.27;;
16468;SDS011;8345;50.902;6.956;2024-03-07T14:40:53;11.37;;;9.97;;
16468;SDS011;8345;50.902;6.956;2024-03-07T14:43:20;11.70;;;10.13;;
16468;SDS011;8345;50.902;6.956;2024-03-07T14:45:49;10.93;;;9.83;;
16468;SDS011;8345;50.902;6.956;2024-03-07T14:48:20;12.47;;;10.67;;
16468;SDS011;8345;50.902;6.956;2024-03-07T14:50:47;13.23;;;10.60;;
16468;SDS011;8345;50.902;6.956;2024-03-07T14:53:15;11.30;;;9.83;;
16468;SDS011;8345;50.902;6.956;2024-03-07T14:55:43;11.80;;;10.23;;
16468;SDS011;8345;50.902;6.956;2024-03-07T14:58:10;9.70;;;8.67;;